Time;durP1;ratioP1;P1;durP2;ratioP2;P2;SDS_P1;SDS_P2;PMS_P1;PMS_P2;Temp;Humidity;BMP_temperature;BMP_pressure;BME280_temperature;BME280_humidity;BME280_pressure;Samples;Min_cycle;Max_cycle;Signal;HPM_P1;HPM_P2
2022/10/29 00:04:13;;;;;;;21.80;19.67;;;;;;;11.53;100.00;100530.06;10419363;28;20442;-70
2022/10/29 00:09:15;;;;;;;18.80;17.25;;;;;;;12.05;100.00;100524.22;10419218;28;20053;-70
2022/10/29 00:14:16;;;;;;;18.85;17.08;;;;;;;12.13;100.00;100529.25;10419993;28;20033;-70
2022/10/29 00:19:18;;;;;;;19.77;17.75;;;;;;;11.99;100.00;100539.31;10419222;28;20057;-69
2022/10/29 00:24:20;;;;;;;17.90;16.50;;;;;;;11.92;100.00;100548.31;10418831;28;20048;-70
2022/10/29 00:29:21;;;;;;;21.30;19.33;;;;;;;11.84;100.00;100544.13;10418614;28;20045;-70
2022/10/29 00:34:23;;;;;;;18.40;16.80;;;;;;;11.92;100.00;100536.00;10419545;28;20041;-70
2022/10/29 00:39:24;;;;;;;19.13;17.27;;;;;;;11.84;100.00;100536.22;10418942;28;20045;-70
2022/10/29 00:44:29;;;;;;;19.25;17.63;;;;;;;11.64;100.00;100533.25;10417826;28;20514;-70
2022/10/29 00:49:33;;;;;;;18.45;16.80;;;;;;;11.88;100.00;100537.00;10418073;28;20045;-70
2022/10/29 00:54:39;;;;;;;19.70;17.75;;;;;;;11.66;100.00;100522.69;10417635;28;20042;-70
2022/10/29 00:59:42;;;;;;;19.40;17.40;;;;;;;11.45;100.00;100530.28;10401458;28;20046;-70
2022/10/29 01:04:45;;;;;;;20.38;18.55;;;;;;;11.52;100.00;100521.31;10418773;28;20041;-70
2022/10/29 01:09:48;;;;;;;19.63;17.83;;;;;;;11.95;100.00;100521.88;10400843;28;20538;-69
2022/10/29 01:15:20;;;;;;;20.25;17.10;;;;;;;11.81;100.00;100522.25;10400561;28;20411;-70
2022/10/29 01:20:54;;;;;;;17.30;15.75;;;;;;;11.47;100.00;100514.47;10418981;28;20491;-69
2022/10/29 01:26:18;;;;;;;18.38;16.88;;;;;;;11.98;100.00;100520.00;10405006;28;20045;-70
2022/10/29 01:31:30;;;;;;;17.50;15.90;;;;;;;11.70;100.00;100519.06;10417347;28;20046;-70
2022/10/29 01:37:05;;;;;;;17.08;15.63;;;;;;;11.57;100.00;100527.31;10417220;28;20041;-70
2022/10/29 01:42:07;;;;;;;17.25;15.85;;;;;;;11.53;100.00;100528.31;10419027;28;20059;-71
2022/10/29 01:47:35;;;;;;;18.77;17.25;;;;;;;12.18;100.00;100521.22;10416829;28;20063;-70
2022/10/29 01:52:37;;;;;;;15.73;14.43;;;;;;;11.96;100.00;100531.53;10416907;28;20545;-70
2022/10/29 01:57:39;;;;;;;15.57;14.35;;;;;;;11.72;100.00;100533.91;10416370;28;20037;-70
2022/10/29 02:03:32;;;;;;;18.42;16.88;;;;;;;12.14;100.00;100528.34;10417008;28;20042;-70
2022/10/29 02:08:48;;;;;;;17.73;16.23;;;;;;;12.05;100.00;100537.38;10418730;28;20458;-70
2022/10/29 02:14:03;;;;;;;17.48;15.88;;;;;;;11.82;100.00;100526.59;10424479;28;20037;-70
2022/10/29 02:19:05;;;;;;;19.02;17.25;;;;;;;12.09;100.00;100517.94;10424047;28;20049;-70
2022/10/29 02:24:07;;;;;;;19.17;17.38;;;;;;;12.11;100.00;100508.19;10424445;28;20129;-70
2022/10/29 02:29:08;;;;;;;17.17;15.68;;;;;;;11.98;100.00;100519.16;10424652;28;20045;-70
2022/10/29 02:34:10;;;;;;;17.80;16.30;;;;;;;11.82;100.00;100513.44;10407350;28;20045;-70
2022/10/29 02:39:11;;;;;;;20.67;18.77;;;;;;;11.87;100.00;100514.22;10423137;28;20077;-69
2022/10/29 02:44:13;;;;;;;18.20;16.63;;;;;;;12.08;100.00;100513.56;10423489;28;20496;-69
2022/10/29 02:49:15;;;;;;;18.90;17.10;;;;;;;11.93;100.00;100531.59;10406593;28;20053;-69
2022/10/29 02:54:16;;;;;;;19.85;17.80;;;;;;;12.21;100.00;100527.22;10422317;28;20037;-69
2022/10/29 02:59:18;;;;;;;18.25;16.85;;;;;;;11.93;100.00;100527.19;10421194;28;20063;-71
2022/10/29 03:04:19;;;;;;;20.08;17.55;;;;;;;11.96;100.00;100536.78;10421068;28;20041;-71
2022/10/29 03:09:21;;;;;;;18.17;16.67;;;;;;;11.84;100.00;100543.28;10423089;28;20041;-71
2022/10/29 03:14:22;;;;;;;18.38;16.75;;;;;;;12.16;100.00;100539.69;10403748;28;20057;-70
2022/10/29 03:19:24;;;;;;;19.17;17.65;;;;;;;11.98;100.00;100543.72;10421577;28;20053;-70
2022/10/29 03:24:26;;;;;;;20.23;18.20;;;;;;;11.70;100.00;100550.69;10422410;28;20479;-70
2022/10/29 03:29:27;;;;;;;19.23;17.33;;;;;;;12.10;100.00;100556.53;10421567;28;20053;-70
2022/10/29 03:34:29;;;;;;;21.25;17.85;;;;;;;11.70;100.00;100553.31;10421456;28;20041;-70
2022/10/29 03:39:30;;;;;;;21.25;18.83;;;;;;;11.71;100.00;100555.03;10420878;28;20052;-70
2022/10/29 03:44:32;;;;;;;20.83;18.73;;;;;;;11.58;100.00;100557.13;10403596;28;20076;-70
2022/10/29 03:49:34;;;;;;;18.58;16.80;;;;;;;11.85;100.00;100563.44;10404377;28;20075;-70
2022/10/29 03:54:35;;;;;;;19.52;17.70;;;;;;;11.66;100.00;100570.97;10405081;28;20041;-71
2022/10/29 03:59:37;;;;;;;20.50;18.30;;;;;;;11.72;100.00;100567.28;10402820;28;20052;-71
2022/10/29 04:04:39;;;;;;;21.80;19.83;;;;;;;11.33;100.00;100565.72;10421264;28;20041;-71
2022/10/29 04:09:40;;;;;;;18.75;17.30;;;;;;;11.14;100.00;100571.47;10420971;28;20073;-71
2022/10/29 04:14:42;;;;;;;19.95;18.25;;;;;;;11.05;100.00;100581.31;10422202;28;20087;-70
2022/10/29 04:19:46;;;;;;;22.30;18.83;;;;;;;11.49;100.00;100575.81;10421259;28;20113;-70
2022/10/29 04:24:47;;;;;;;20.92;18.88;;;;;;;11.09;100.00;100593.50;10420713;28;20045;-70
2022/10/29 04:30:09;;;;;;;21.90;20.05;;;;;;;11.16;100.00;100591.59;10402383;28;20072;-70
2022/10/29 04:35:11;;;;;;;21.63;19.40;;;;;;;11.15;100.00;100587.22;10423033;28;20101;-70
2022/10/29 04:40:13;;;;;;;21.45;17.73;;;;;;;10.79;100.00;100600.38;10401852;28;20176;-70
2022/10/29 04:45:16;;;;;;;21.58;19.70;;;;;;;11.16;100.00;100593.38;10402603;28;20092;-70
2022/10/29 04:50:18;;;;;;;20.83;19.05;;;;;;;11.06;100.00;100590.06;10403581;28;20049;-70
2022/10/29 04:55:20;;;;;;;20.83;18.58;;;;;;;10.75;100.00;100584.69;10421777;28;20033;-69
2022/10/29 05:00:22;;;;;;;21.52;19.50;;;;;;;10.98;100.00;100577.13;10406530;28;20045;-69
2022/10/29 05:05:24;;;;;;;21.27;19.38;;;;;;;10.66;100.00;100575.25;10444887;22;20049;-74
2022/10/29 05:10:27;;;;;;;20.98;18.70;;;;;;;10.35;100.00;100585.59;10457556;28;20049;-74
2022/10/29 05:15:29;;;;;;;20.83;19.05;;;;;;;10.83;100.00;100598.53;10439067;28;20068;-73
2022/10/29 05:20:32;;;;;;;20.15;18.35;;;;;;;10.53;100.00;100594.84;10457338;28;20057;-74
2022/10/29 05:25:35;;;;;;;22.00;19.85;;;;;;;10.80;100.00;100603.84;10456987;28;20064;-73
2022/10/29 05:30:38;;;;;;;22.35;19.98;;;;;;;10.90;100.00;100609.78;10457152;28;20044;-74
2022/10/29 05:35:39;;;;;;;21.38;19.73;;;;;;;10.58;100.00;100609.63;10457545;28;20045;-74
2022/10/29 05:40:43;;;;;;;26.83;22.60;;;;;;;10.88;100.00;100603.69;10456811;28;20056;-74
2022/10/29 05:45:46;;;;;;;23.95;21.63;;;;;;;10.87;100.00;100610.72;10445621;28;20041;-74
2022/10/29 05:50:47;;;;;;;23.90;21.67;;;;;;;10.94;100.00;100620.19;10464731;28;20099;-73
2022/10/29 05:55:49;;;;;;;21.73;19.70;;;;;;;11.00;100.00;100620.03;10464094;28;20384;-74
2022/10/29 06:00:51;;;;;;;21.25;19.45;;;;;;;10.71;100.00;100617.22;10464019;28;20095;-74
2022/10/29 06:05:52;;;;;;;22.23;20.50;;;;;;;11.02;100.00;100622.63;10445905;28;20044;-73
2022/10/29 06:10:54;;;;;;;21.45;19.65;;;;;;;10.84;100.00;100622.16;10464369;28;20099;-73
2022/10/29 06:15:57;;;;;;;21.55;19.65;;;;;;;10.83;100.00;100625.69;10447009;28;20041;-75
2022/10/29 06:21:00;;;;;;;22.67;20.42;;;;;;;10.95;100.00;100618.44;10464752;28;20041;-75
2022/10/29 06:26:02;;;;;;;26.27;21.15;;;;;;;11.03;100.00;100619.13;10466803;28;20540;-74
2022/10/29 06:31:04;;;;;;;20.90;19.08;;;;;;;10.81;100.00;100626.66;10465516;28;20099;-73
2022/10/29 06:36:06;;;;;;;22.73;20.70;;;;;;;10.98;100.00;100631.47;10464498;28;20033;-74
2022/10/29 06:41:08;;;;;;;20.00;18.40;;;;;;;10.79;100.00;100639.81;10465295;28;20056;-74
2022/10/29 06:46:10;;;;;;;22.50;20.60;;;;;;;11.11;100.00;100640.81;10465013;28;20124;-74
2022/10/29 06:51:12;;;;;;;21.52;19.73;;;;;;;10.97;100.00;100649.03;10466728;28;20503;-74
2022/10/29 06:56:14;;;;;;;24.23;22.15;;;;;;;11.20;100.00;100637.09;10449598;28;20041;-74
2022/10/29 07:01:16;;;;;;;22.02;20.02;;;;;;;11.28;100.00;100632.50;10449421;28;20049;-76
2022/10/29 07:06:18;;;;;;;24.23;21.20;;;;;;;11.25;100.00;100633.47;10449615;28;20052;-76
2022/10/29 07:11:20;;;;;;;25.25;22.80;;;;;;;11.50;100.00;100633.69;10450226;28;20045;-76
2022/10/29 07:16:21;;;;;;;32.38;25.83;;;;;;;11.57;100.00;100635.25;10446141;28;20048;-77
2022/10/29 07:21:23;;;;;;;26.80;24.35;;;;;;;11.61;100.00;100651.84;10461896;28;20449;-76
2022/10/29 07:26:25;;;;;;;32.50;25.98;;;;;;;11.76;100.00;100642.66;10461270;28;20037;-76
2022/10/29 07:31:29;;;;;;;29.00;25.80;;;;;;;11.96;100.00;100643.03;10443045;28;20049;-75
2022/10/29 07:36:30;;;;;;;27.95;25.35;;;;;;;12.40;100.00;100627.72;10461480;28;20041;-72
2022/10/29 07:41:32;;;;;;;27.60;24.73;;;;;;;12.43;100.00;100635.53;10426479;28;20080;-75
2022/10/29 07:46:34;;;;;;;26.73;23.65;;;;;;;12.56;100.00;100643.94;10460062;28;20099;-72
2022/10/29 07:51:35;;;;;;;25.20;22.75;;;;;;;12.69;100.00;100629.47;10460617;28;20514;-73
2022/10/29 07:56:37;;;;;;;26.17;22.65;;;;;;;13.20;100.00;100646.34;10460281;28;20041;-72
2022/10/29 08:01:44;;;;;;;;;;;;;;;13.14;100.00;100650.88;10459664;28;20091;-72
2022/10/29 08:06:46;;;;;;;23.70;21.55;;;;;;;13.65;100.00;100645.72;10440116;28;19969;-72
2022/10/29 08:11:48;;;;;;;24.20;20.95;;;;;;;13.52;100.00;100656.72;10458780;28;20045;-74
2022/10/29 08:16:53;;;;;;;25.85;20.63;;;;;;;13.43;100.00;100653.53;10458827;28;20041;-74
2022/10/29 08:21:55;;;;;;;20.58;18.95;;;;;;;13.70;100.00;100646.44;10441451;28;20061;-74
2022/10/29 08:26:57;;;;;;;21.30;19.50;;;;;;;14.02;100.00;100630.28;10458650;28;20044;-73
2022/10/29 08:31:59;;;;;;;21.80;18.98;;;;;;;14.02;100.00;100626.78;10442393;28;20090;-73
2022/10/29 08:37:00;;;;;;;19.95;18.20;;;;;;;13.98;100.00;100610.16;10457914;28;20041;-73
2022/10/29 08:42:41;;;;;;;20.00;18.00;;;;;;;14.40;100.00;100596.25;10441667;28;20084;-72
2022/10/29 08:47:48;;;;;;;27.25;19.05;;;;;;;14.64;98.52;100600.59;10458189;28;20056;-73
2022/10/29 08:52:51;;;;;;;18.95;17.38;;;;;;;14.88;96.43;100605.88;10459363;28;20442;-73
2022/10/29 08:58:32;;;;;;;20.77;18.77;;;;;;;15.14;95.18;100602.16;10460737;28;20041;-72
2022/10/29 09:03:33;;;;;;;19.60;18.02;;;;;;;15.21;94.33;100600.97;10459532;28;20115;-73
2022/10/29 09:09:00;;;;;;;21.10;18.95;;;;;;;15.37;94.30;100595.88;10459550;28;20425;-72
2022/10/29 09:14:20;;;;;;;19.38;17.23;;;;;;;15.45;93.20;100596.44;10459495;28;20052;-73
2022/10/29 09:20:11;;;;;;;22.70;17.40;;;;;;;15.70;92.17;100590.06;10459003;28;20395;-73
2022/10/29 09:25:20;;;;;;;18.88;17.13;;;;;;;15.66;93.00;100588.47;10431779;28;20107;-73
2022/10/29 09:30:25;;;;;;;20.35;18.02;;;;;;;16.14;88.08;100586.28;10441668;28;20044;-74
2022/10/29 09:35:54;;;;;;;20.35;18.30;;;;;;;16.18;87.75;100583.50;10458824;28;20485;-74
2022/10/29 09:40:57;;;;;;;17.67;16.08;;;;;;;16.09;87.87;100595.38;10433235;28;20477;-75
2022/10/29 09:45:59;;;;;;;18.50;16.33;;;;;;;15.97;88.59;100603.88;10459598;28;20039;-74
2022/10/29 09:51:13;;;;;;;16.67;15.38;;;;;;;15.97;88.12;100599.44;10440073;28;20102;-74
2022/10/29 09:56:15;;;;;;;18.08;16.27;;;;;;;16.00;88.86;100596.66;10456275;28;20107;-75
2022/10/29 10:01:17;;;;;;;17.90;15.07;;;;;;;16.32;87.10;100605.78;10457124;28;20041;-75
2022/10/29 10:06:19;;;;;;;16.23;14.57;;;;;;;16.42;87.63;100608.00;10439276;28;20056;-75
2022/10/29 10:11:21;;;;;;;15.50;14.20;;;;;;;16.77;84.44;100612.53;10456176;28;20044;-76
2022/10/29 10:16:26;;;;;;;14.15;13.05;;;;;;;17.40;80.78;100602.34;10455833;28;20049;-75
2022/10/29 10:21:30;;;;;;;14.63;13.30;;;;;;;18.00;74.96;100599.22;10455917;28;20045;-76
2022/10/29 10:50:21;;;;;;;14.90;13.55;;;;;;;18.82;73.46;100553.88;10577468;27;20170;-74
2022/10/29 10:55:30;;;;;;;14.32;12.55;;;;;;;19.08;71.29;100557.69;10579206;28;20073;-76
2022/10/29 11:00:39;;;;;;;13.45;12.15;;;;;;;19.24;72.38;100557.63;10579302;28;20148;-75
2022/10/29 11:06:11;;;;;;;14.90;13.27;;;;;;;19.17;70.29;100558.97;10580552;22;20055;-72
2022/10/29 11:11:20;;;;;;;14.10;12.55;;;;;;;19.56;68.16;100550.34;10458632;28;20079;-73
2022/10/29 11:16:32;;;;;;;14.05;12.85;;;;;;;20.15;68.32;100544.97;10488823;28;20530;-74
2022/10/29 11:21:45;;;;;;;14.02;11.27;;;;;;;20.48;63.87;100535.78;10474399;28;20537;-73
2022/10/29 11:26:52;;;;;;;13.23;11.98;;;;;;;20.21;66.32;100525.88;10488759;28;20041;-73
2022/10/29 11:32:06;;;;;;;12.90;11.73;;;;;;;20.34;65.65;100521.47;10488794;28;20458;-73
2022/10/29 11:37:16;;;;;;;13.23;11.90;;;;;;;20.26;65.26;100498.91;10489085;28;20064;-73
2022/10/29 11:42:18;;;;;;;19.73;12.07;;;;;;;20.15;65.21;100508.47;10458495;28;20461;-74
2022/10/29 11:47:57;;;;;;;12.98;11.75;;;;;;;20.10;66.30;100499.03;10520915;28;20079;-73
2022/10/29 11:53:31;;;;;;;13.35;12.05;;;;;;;19.90;66.61;100497.63;10550624;28;20052;-74
2022/10/29 11:58:59;;;;;;;13.55;12.32;;;;;;;19.84;67.92;100488.22;10521665;28;20056;-74
2022/10/29 12:04:16;;;;;;;13.52;12.18;;;;;;;20.01;66.50;100483.59;10505186;28;20098;-74
2022/10/29 12:09:45;;;;;;;13.93;12.38;;;;;;;19.69;67.94;100473.16;10485887;28;20048;-72
2022/10/29 12:15:03;;;;;;;13.57;12.32;;;;;;;19.54;69.38;100466.94;10501463;28;20070;-72
2022/10/29 12:20:40;;;;;;;16.48;13.20;;;;;;;19.64;67.57;100469.91;10501693;28;20047;-72
2022/10/29 12:25:56;;;;;;;14.30;12.88;;;;;;;19.46;68.84;100465.69;10501988;28;20417;-73
2022/10/29 12:30:58;;;;;;;18.00;13.13;;;;;;;19.46;68.74;100463.03;10504300;28;20386;-73
2022/10/29 12:36:08;;;;;;;14.95;13.32;;;;;;;19.30;69.82;100460.44;10506607;28;20099;-73
2022/10/29 12:41:33;;;;;;;15.82;14.00;;;;;;;19.16;70.87;100442.63;10503945;28;20052;-73
2022/10/29 12:46:34;;;;;;;15.90;14.10;;;;;;;19.11;72.18;100442.91;10503975;28;20094;-72
2022/10/29 12:51:50;;;;;;;16.88;14.43;;;;;;;19.31;71.42;100436.38;10503205;28;20044;-71
2022/10/29 12:56:52;;;;;;;14.57;13.27;;;;;;;19.23;71.64;100432.47;10506528;28;20052;-72
2022/10/29 13:01:54;;;;;;;18.10;13.32;;;;;;;19.29;71.81;100426.75;10521746;28;20110;-73
2022/10/29 13:07:19;;;;;;;16.13;14.93;;;;;;;19.04;73.01;100422.94;10507424;28;20174;-74
2022/10/29 13:12:53;;;;;;;14.68;13.18;;;;;;;18.97;74.15;100415.41;10505505;28;20074;-73
2022/10/29 13:18:01;;;;;;;18.63;14.80;;;;;;;19.26;72.20;100414.50;10522099;28;20045;-73
2022/10/29 13:23:22;;;;;;;16.63;15.13;;;;;;;19.11;73.43;100407.41;10521592;28;20098;-73
2022/10/29 13:28:24;;;;;;;15.32;13.88;;;;;;;18.98;73.43;100411.78;10505040;28;20047;-73
2022/10/29 13:33:26;;;;;;;16.17;14.95;;;;;;;18.81;74.54;100399.47;10505480;28;20123;-73
2022/10/29 13:38:49;;;;;;;16.88;15.25;;;;;;;18.88;73.92;100407.00;10502927;28;20036;-72
2022/10/29 13:44:12;;;;;;;17.15;15.07;;;;;;;18.92;74.27;100407.69;10504362;28;20044;-72
2022/10/29 13:49:19;;;;;;;15.48;14.02;;;;;;;18.49;77.13;100412.00;10520354;28;20044;-73
2022/10/29 13:54:30;;;;;;;15.38;14.05;;;;;;;18.21;79.45;100410.97;10505900;28;20036;-73
2022/10/29 13:59:47;;;;;;;16.50;15.00;;;;;;;18.13;79.33;100419.38;10519213;28;20486;-72
2022/10/29 14:04:55;;;;;;;17.00;15.70;;;;;;;18.28;78.68;100411.44;10502802;28;20045;-72
2022/10/29 14:10:06;;;;;;;18.52;16.92;;;;;;;18.27;79.28;100417.72;10501876;28;20058;-72
2022/10/29 14:15:11;;;;;;;17.40;15.90;;;;;;;17.97;81.93;100415.84;10502619;28;20057;-72
2022/10/29 14:20:21;;;;;;;17.95;16.55;;;;;;;17.90;82.50;100412.69;10519018;28;20425;-72
2022/10/29 14:25:34;;;;;;;21.27;19.30;;;;;;;18.17;83.02;100409.41;10482556;28;20403;-73
2022/10/29 14:30:36;;;;;;;20.95;19.05;;;;;;;18.06;83.60;100406.50;10500759;28;20090;-73
2022/10/29 14:35:38;;;;;;;22.92;20.67;;;;;;;17.89;84.10;100416.31;10503832;28;20045;-73
2022/10/29 14:40:43;;;;;;;21.83;19.75;;;;;;;17.95;83.11;100415.09;10498950;28;20055;-73
2022/10/29 14:45:45;;;;;;;23.00;20.40;;;;;;;17.79;84.07;100420.41;10500518;28;20575;-72
2022/10/29 14:50:50;;;;;;;22.67;20.88;;;;;;;17.71;85.28;100414.63;10481734;28;20064;-69
2022/10/29 14:55:52;;;;;;;27.92;22.27;;;;;;;17.76;83.45;100417.06;10497499;28;20482;-69
2022/10/29 15:01:08;;;;;;;24.48;22.33;;;;;;;17.47;85.47;100422.13;10499242;28;20048;-69
2022/10/29 15:06:15;;;;;;;22.33;20.02;;;;;;;17.26;87.08;100426.78;10497302;28;20094;-69
2022/10/29 15:11:36;;;;;;;21.73;19.52;;;;;;;17.10;88.39;100420.59;10497921;28;20098;-69
2022/10/29 15:16:38;;;;;;;24.08;21.85;;;;;;;16.98;89.41;100418.56;10497034;28;20048;-69
2022/10/29 15:21:43;;;;;;;24.77;22.30;;;;;;;16.87;90.68;100419.16;10498254;28;20064;-69
2022/10/29 15:26:55;;;;;;;24.88;22.33;;;;;;;16.83;92.64;100413.13;10498940;28;20044;-70
2022/10/29 15:31:56;;;;;;;24.70;22.25;;;;;;;16.70;93.56;100419.97;10497847;28;20041;-70
2022/10/29 15:37:18;;;;;;;24.95;22.75;;;;;;;16.38;95.54;100419.81;10520980;28;20140;-69
2022/10/29 15:42:22;;;;;;;26.17;23.33;;;;;;;16.09;97.81;100413.25;10504399;28;20046;-69
2022/10/29 15:47:27;;;;;;;27.50;23.63;;;;;;;16.23;96.47;100425.84;10519414;28;20133;-70
2022/10/29 15:52:38;;;;;;;45.60;23.75;;;;;;;16.17;98.12;100415.53;10519357;28;20105;-69
2022/10/29 15:57:40;;;;;;;39.17;24.10;;;;;;;15.96;100.00;100419.22;10503986;28;20071;-69
2022/10/29 16:02:42;;;;;;;25.08;22.75;;;;;;;15.70;100.00;100416.00;10505133;28;20049;-69
2022/10/29 16:07:45;;;;;;;30.15;24.85;;;;;;;15.59;100.00;100416.50;10503552;28;20129;-70
2022/10/29 16:12:48;;;;;;;26.08;23.33;;;;;;;15.49;100.00;100409.88;10503559;28;20079;-70
2022/10/29 16:17:50;;;;;;;32.78;25.75;;;;;;;15.63;100.00;100406.63;10502917;28;20124;-69
2022/10/29 16:22:52;;;;;;;25.52;23.05;;;;;;;15.38;100.00;100425.41;10502712;28;20048;-70
2022/10/29 16:27:54;;;;;;;26.80;24.42;;;;;;;15.14;100.00;100416.81;10504353;28;20044;-70
2022/10/29 16:32:56;;;;;;;30.08;25.88;;;;;;;15.24;100.00;100417.25;10517942;28;20104;-70
2022/10/29 16:37:58;;;;;;;38.63;27.63;;;;;;;15.22;100.00;100421.72;10517628;28;20563;-70
2022/10/29 16:42:59;;;;;;;28.42;25.60;;;;;;;15.04;100.00;100404.88;10502196;28;20083;-69
2022/10/29 16:48:02;;;;;;;27.55;24.88;;;;;;;14.86;100.00;100407.41;10503114;28;20504;-69
2022/10/29 16:53:06;;;;;;;29.63;26.55;;;;;;;14.79;100.00;100411.25;10502291;28;20410;-69
2022/10/29 16:58:10;;;;;;;36.60;26.00;;;;;;;14.61;100.00;100404.13;10502161;28;20078;-69
2022/10/29 17:03:14;;;;;;;38.17;29.10;;;;;;;14.52;100.00;100413.28;10501426;28;20093;-69
2022/10/29 17:08:16;;;;;;;39.10;30.42;;;;;;;14.47;100.00;100414.34;10471451;22;20072;-75
2022/10/29 17:13:18;;;;;;;45.35;30.30;;;;;;;14.53;100.00;100416.78;10421968;28;20045;-74
2022/10/29 17:18:21;;;;;;;42.42;31.20;;;;;;;14.63;100.00;100418.97;10424011;28;20037;-75
2022/10/29 17:23:23;;;;;;;46.78;33.17;;;;;;;14.56;100.00;100417.50;10420033;28;20140;-73
2022/10/29 17:28:26;;;;;;;37.05;31.48;;;;;;;14.45;100.00;100411.78;10418346;28;20049;-72
2022/10/29 17:33:28;;;;;;;38.30;30.30;;;;;;;14.46;100.00;100423.22;10402607;28;20049;-73
2022/10/29 17:38:30;;;;;;;39.55;30.48;;;;;;;14.60;100.00;100424.38;10434388;28;20068;-73
2022/10/29 17:43:32;;;;;;;53.67;44.28;;;;;;;14.41;100.00;100411.97;10419732;28;20053;-73
2022/10/29 17:48:34;;;;;;;37.50;30.17;;;;;;;14.25;100.00;100414.38;10436652;28;20398;-73
2022/10/29 17:53:37;;;;;;;50.75;36.78;;;;;;;14.20;100.00;100411.94;10422207;28;20140;-73
2022/10/29 17:58:40;;;;;;;46.35;34.88;;;;;;;14.39;100.00;100414.69;10421272;28;20065;-74
2022/10/29 18:03:42;;;;;;;56.65;41.08;;;;;;;14.54;100.00;100415.88;10422497;28;20128;-72
2022/10/29 18:08:44;;;;;;;51.55;37.88;;;;;;;14.33;100.00;100412.28;10421580;28;20053;-73
2022/10/29 18:13:48;;;;;;;40.75;33.28;;;;;;;14.16;100.00;100415.63;10420360;28;20480;-74
2022/10/29 18:18:51;;;;;;;43.60;33.22;;;;;;;14.36;100.00;100412.16;10437882;28;20048;-73
2022/10/29 18:24:03;;;;;;;42.00;31.90;;;;;;;14.17;100.00;100416.50;10420921;28;20037;-74
2022/10/29 18:29:10;;;;;;;45.88;33.55;;;;;;;14.26;100.00;100406.41;10437533;28;20034;-72
2022/10/29 18:34:14;;;;;;;47.72;34.33;;;;;;;14.10;100.00;100405.31;10437773;28;20072;-75
2022/10/29 18:39:16;;;;;;;43.80;33.70;;;;;;;13.84;100.00;100411.63;10420807;28;20042;-73
2022/10/29 18:44:17;;;;;;;46.40;32.58;;;;;;;13.81;100.00;100409.09;10420107;28;20503;-73
2022/10/29 18:49:20;;;;;;;52.33;33.60;;;;;;;13.67;100.00;100414.03;10418519;28;20041;-73
2022/10/29 18:54:22;;;;;;;41.38;32.00;;;;;;;13.61;100.00;100423.94;10421872;28;20037;-74
2022/10/29 18:59:24;;;;;;;47.10;31.92;;;;;;;13.59;100.00;100428.44;10420614;28;20053;-73
2022/10/29 19:04:26;;;;;;;60.05;41.92;;;;;;;13.77;100.00;100428.66;10421942;28;20071;-74
2022/10/29 19:09:28;;;;;;;53.13;37.80;;;;;;;13.60;100.00;100424.00;10420762;28;20049;-73
2022/10/29 19:14:30;;;;;;;41.78;33.75;;;;;;;13.42;100.00;100424.69;10441224;28;20108;-72
2022/10/29 19:19:32;;;;;;;52.95;35.00;;;;;;;13.32;100.00;100424.16;10424673;28;20052;-73
2022/10/29 19:24:34;;;;;;;51.60;33.67;;;;;;;13.56;100.00;100422.41;10423872;28;20052;-73
2022/10/29 19:29:36;;;;;;;44.20;34.70;;;;;;;13.28;100.00;100420.78;10423644;28;20046;-74
2022/10/29 19:34:39;;;;;;;59.72;37.90;;;;;;;13.18;100.00;100421.13;10423892;28;20049;-73
2022/10/29 19:39:46;;;;;;;50.97;36.22;;;;;;;12.90;100.00;100413.34;10423291;28;20072;-75
2022/10/29 19:44:48;;;;;;;49.63;35.58;;;;;;;12.75;100.00;100418.25;10421989;28;20053;-72
2022/10/29 19:49:56;;;;;;;49.90;36.22;;;;;;;13.17;100.00;100417.63;10424017;28;20038;-73
2022/10/29 19:54:58;;;;;;;48.97;33.50;;;;;;;13.01;100.00;100408.53;10438655;28;20053;-73
2022/10/29 20:00:00;;;;;;;44.47;33.88;;;;;;;12.75;100.00;100401.53;10421370;28;20388;-73
2022/10/29 20:05:05;;;;;;;42.95;34.72;;;;;;;12.56;100.00;100410.09;10438061;28;20045;-73
2022/10/29 20:10:07;;;;;;;39.92;33.30;;;;;;;12.40;100.00;100419.44;10421686;28;20045;-74
2022/10/29 20:15:11;;;;;;;43.03;33.17;;;;;;;12.51;100.00;100409.38;10421465;28;20103;-73
2022/10/29 20:20:12;;;;;;;79.55;50.60;;;;;;;12.82;100.00;100403.06;10420135;28;20060;-74
2022/10/29 20:25:18;;;;;;;65.45;43.28;;;;;;;12.54;100.00;100413.69;10420061;28;20050;-72
2022/10/29 20:30:24;;;;;;;50.72;36.47;;;;;;;12.70;100.00;100420.16;10421086;28;20043;-74
2022/10/29 20:35:26;;;;;;;47.08;33.45;;;;;;;12.56;100.00;100417.13;10436295;28;20045;-73
2022/10/29 20:40:28;;;;;;;41.92;32.00;;;;;;;12.23;100.00;100408.59;10419354;28;20060;-72
2022/10/29 20:45:30;;;;;;;50.50;33.08;;;;;;;12.29;100.00;100403.09;10419378;28;20053;-74
2022/10/29 20:50:32;;;;;;;43.63;32.00;;;;;;;12.16;100.00;100405.28;10420453;28;20064;-72
2022/10/29 20:55:34;;;;;;;41.53;31.30;;;;;;;11.97;100.00;100405.00;10420575;28;20549;-73
2022/10/29 21:00:37;;;;;;;49.40;35.78;;;;;;;12.09;100.00;100402.00;10420111;28;20387;-73
2022/10/29 21:05:39;;;;;;;44.85;33.60;;;;;;;12.02;100.00;100404.88;10434975;28;20057;-73
2022/10/29 21:10:41;;;;;;;50.70;33.65;;;;;;;11.85;100.00;100406.25;10419489;28;20073;-73
2022/10/29 21:15:42;;;;;;;40.22;33.38;;;;;;;11.85;100.00;100408.88;10418056;28;20418;-73
2022/10/29 21:20:44;;;;;;;43.33;31.42;;;;;;;11.63;100.00;100402.50;10418610;28;20050;-74
2022/10/29 21:25:52;;;;;;;38.90;31.70;;;;;;;11.60;100.00;100403.47;10435348;28;20068;-73
2022/10/29 21:30:54;;;;;;;44.00;31.75;;;;;;;11.53;100.00;100399.31;10417324;28;20045;-73
2022/10/29 21:35:57;;;;;;;37.30;30.98;;;;;;;11.45;100.00;100401.28;10413892;28;20042;-73
2022/10/29 21:41:00;;;;;;;45.30;34.03;;;;;;;11.84;100.00;100401.88;10430371;28;20111;-73
2022/10/29 21:46:02;;;;;;;43.35;33.08;;;;;;;11.83;100.00;100400.19;10413724;28;20045;-72
2022/10/29 21:51:07;;;;;;;36.67;30.27;;;;;;;11.46;100.00;100403.00;10416596;28;20041;-73
2022/10/29 21:56:11;;;;;;;39.38;30.50;;;;;;;11.40;100.00;100402.34;10416800;28;20061;-74
2022/10/29 22:01:15;;;;;;;49.45;36.47;;;;;;;11.49;100.00;100399.44;10416347;28;20064;-74
2022/10/29 22:06:18;;;;;;;45.90;33.97;;;;;;;11.69;100.00;100398.84;10432847;28;20202;-73
2022/10/29 22:11:21;;;;;;;46.35;30.15;;;;;;;11.71;100.00;100399.66;10417540;28;20041;-73
2022/10/29 22:16:22;;;;;;;39.00;30.10;;;;;;;11.59;100.00;100399.09;10415895;28;20073;-73
2022/10/29 22:21:25;;;;;;;34.67;28.05;;;;;;;11.30;100.00;100392.09;10417553;28;20056;-72
2022/10/29 22:26:28;;;;;;;35.65;30.33;;;;;;;11.19;100.00;100404.66;10414705;28;20076;-72
2022/10/29 22:31:30;;;;;;;49.75;31.63;;;;;;;11.19;100.00;100401.19;10430979;28;20095;-72
2022/10/29 22:36:32;;;;;;;59.20;34.28;;;;;;;11.33;100.00;100396.38;10414378;28;20459;-72
2022/10/29 22:41:34;;;;;;;43.20;29.08;;;;;;;11.48;100.00;100390.69;10416111;28;20453;-72
2022/10/29 22:46:35;;;;;;;38.42;28.80;;;;;;;11.34;100.00;100379.69;10430850;28;20041;-72
2022/10/29 22:51:37;;;;;;;39.97;29.17;;;;;;;11.31;100.00;100390.31;10430642;28;20096;-72
2022/10/29 22:56:39;;;;;;;35.17;28.00;;;;;;;11.27;100.00;100399.19;10415632;28;20084;-72
2022/10/29 23:01:41;;;;;;;40.45;28.92;;;;;;;11.04;100.00;100397.22;10413867;28;20045;-73
2022/10/29 23:06:46;;;;;;;42.22;29.50;;;;;;;11.05;100.00;100397.16;10413590;28;20045;-69
2022/10/29 23:11:48;;;;;;;41.42;29.60;;;;;;;11.33;100.00;100397.28;10414537;28;20065;-70